Time;durP1;ratioP1;P1;durP2;ratioP2;P2;SDS_P1;SDS_P2;PMS_P1;PMS_P2;Temp;Humidity;BMP_temperature;BMP_pressure;BME280_temperature;BME280_humidity;BME280_pressure;Samples;Min_cycle;Max_cycle;Signal;HPM_P1;HPM_P2
2023/11/13 00:01:52;;;;;;;3.07;2.63;;;;;;;2.92;100.00;99681.34;5027079;28;20481;-65
2023/11/13 00:04:18;;;;;;;2.53;2.33;;;;;;;2.92;100.00;99679.56;5027696;28;20512;-66
2023/11/13 00:06:43;;;;;;;2.90;2.30;;;;;;;2.99;100.00;99672.75;5025827;28;20307;-66
2023/11/13 00:09:09;;;;;;;2.93;1.80;;;;;;;2.66;100.00;99618.81;5028876;28;20045;-67
2023/11/13 00:11:35;;;;;;;2.37;2.17;;;;;;;2.91;100.00;99664.75;5025012;28;20029;-69
2023/11/13 00:14:00;;;;;;;2.20;1.80;;;;;;;2.86;100.00;99656.41;5030003;28;20586;-67
2023/11/13 00:16:26;;;;;;;2.30;1.70;;;;;;;2.85;100.00;99653.94;5029799;28;20076;-67
2023/11/13 00:18:52;;;;;;;1.90;1.70;;;;;;;2.88;100.00;99669.44;5025839;28;20037;-68
2023/11/13 00:21:18;;;;;;;2.00;1.80;;;;;;;2.71;100.00;99653.41;5024883;28;20042;-66
2023/11/13 00:23:43;;;;;;;2.17;1.97;;;;;;;2.76;100.00;99655.63;5030399;28;20350;-67
2023/11/13 00:26:10;;;;;;;3.23;1.80;;;;;;;2.63;100.00;99632.25;5026651;28;20157;-67
2023/11/13 00:28:36;;;;;;;1.90;1.70;;;;;;;2.76;100.00;99661.69;5030054;28;20057;-67
2023/11/13 00:31:02;;;;;;;2.00;1.77;;;;;;;2.66;100.00;99642.47;5026234;28;20336;-67
2023/11/13 00:33:28;;;;;;;1.73;1.50;;;;;;;2.70;100.00;99657.00;5025954;28;20048;-68
2023/11/13 00:35:54;;;;;;;2.33;1.77;;;;;;;2.69;100.00;99647.47;5029698;28;20401;-69
2023/11/13 00:38:20;;;;;;;1.70;1.60;;;;;;;2.70;100.00;99643.88;5028221;28;20037;-67
2023/11/13 00:40:48;;;;;;;2.43;1.60;;;;;;;2.48;100.00;99604.72;5030064;28;20194;-68
2023/11/13 00:43:14;;;;;;;2.23;2.03;;;;;;;2.57;100.00;99605.66;5025549;28;20667;-68
2023/11/13 00:45:42;;;;;;;1.70;1.50;;;;;;;2.65;100.00;99619.81;5028209;28;20280;-67
2023/11/13 00:48:08;;;;;;;2.13;1.92;;;;;;;2.46;100.00;99602.22;5028641;28;20288;-67
2023/11/13 00:50:33;;;;;;;1.47;1.30;;;;;;;2.66;100.00;99629.34;5029985;28;20041;-66
2023/11/13 00:52:59;;;;;;;2.23;1.70;;;;;;;2.65;100.00;99626.84;5024985;28;20041;-67
2023/11/13 00:55:25;;;;;;;2.43;2.10;;;;;;;2.51;100.00;99609.69;5028819;28;20045;-69
2023/11/13 00:57:53;;;;;;;2.27;1.87;;;;;;;2.47;100.00;99582.03;5026267;28;20471;-67
2023/11/13 01:00:19;;;;;;;2.20;2.00;;;;;;;2.67;100.00;99636.25;5026924;28;20280;-67
2023/11/13 01:02:45;;;;;;;3.10;2.50;;;;;;;2.61;100.00;99600.03;5028304;28;20280;-67
2023/11/13 01:05:11;;;;;;;5.23;2.53;;;;;;;2.53;100.00;99594.63;5020249;28;20277;-66
2023/11/13 01:07:37;;;;;;;2.40;2.07;;;;;;;2.60;100.00;99611.50;5024811;28;20453;-67
2023/11/13 01:10:03;;;;;;;2.93;2.33;;;;;;;2.67;100.00;99609.97;5028257;28;20275;-67
2023/11/13 01:12:28;;;;;;;3.90;2.40;;;;;;;2.68;100.00;99605.53;5031150;28;20068;-67
2023/11/13 01:14:54;;;;;;;3.20;2.47;;;;;;;2.35;100.00;99559.50;5029271;28;20284;-68
2023/11/13 01:17:20;;;;;;;4.37;3.30;;;;;;;2.66;100.00;99612.75;5029121;28;20103;-66
2023/11/13 01:19:46;;;;;;;3.03;2.07;;;;;;;2.54;100.00;99585.75;5027927;28;20084;-67
2023/11/13 01:22:12;;;;;;;3.40;2.83;;;;;;;2.67;100.00;99614.41;5024599;28;20124;-67
2023/11/13 01:24:38;;;;;;;1.60;1.50;;;;;;;2.56;100.00;99612.72;5009673;28;20355;-66
2023/11/13 01:27:04;;;;;;;3.80;1.80;;;;;;;2.62;100.00;99608.75;5046622;28;20037;-66
2023/11/13 01:29:29;;;;;;;2.33;1.90;;;;;;;2.48;100.00;99595.03;5041582;28;20275;-66
2023/11/13 01:31:55;;;;;;;2.60;2.00;;;;;;;2.59;100.00;99609.00;5043640;28;20586;-67
2023/11/13 01:34:20;;;;;;;4.27;2.03;;;;;;;2.49;100.00;99591.44;5046617;28;20041;-66
2023/11/13 01:36:46;;;;;;;3.00;2.10;;;;;;;2.43;100.00;99560.47;5042611;28;20052;-68
2023/11/13 01:39:12;;;;;;;2.20;2.00;;;;;;;2.44;100.00;99577.06;5032276;28;20033;-65
2023/11/13 01:41:39;;;;;;;2.93;2.20;;;;;;;2.54;100.00;99600.69;5032099;28;20299;-68
2023/11/13 01:44:08;;;;;;;2.17;1.87;;;;;;;2.48;100.00;99578.44;5033424;28;20520;-66
2023/11/13 01:46:34;;;;;;;2.30;1.88;;;;;;;2.46;100.00;99585.63;5032919;28;20276;-68
2023/11/13 01:49:00;;;;;;;2.27;1.60;;;;;;;2.47;100.00;99585.50;5032475;28;20099;-67
2023/11/13 01:51:26;;;;;;;2.40;1.67;;;;;;;2.42;100.00;99571.13;5033422;28;20354;-68
2023/11/13 01:53:54;;;;;;;1.60;1.47;;;;;;;2.48;100.00;99578.44;5034408;28;20272;-66
2023/11/13 01:56:23;;;;;;;1.73;1.30;;;;;;;2.48;100.00;99573.19;5025975;28;20284;-66
2023/11/13 01:58:49;;;;;;;1.95;1.73;;;;;;;2.45;100.00;99558.53;5027883;28;20284;-69
2023/11/13 02:01:14;;;;;;;1.53;1.43;;;;;;;2.52;100.00;99568.47;5030163;28;20068;-69
2023/11/13 02:03:40;;;;;;;1.57;1.47;;;;;;;2.37;100.00;99544.44;5028367;28;20041;-67
2023/11/13 02:06:07;;;;;;;1.50;1.40;;;;;;;2.39;100.00;99559.09;5029107;28;20037;-66
2023/11/13 02:08:33;;;;;;;2.00;1.80;;;;;;;2.37;100.00;99550.53;5029974;28;20041;-67
2023/11/13 02:11:06;;;;;;;1.90;1.30;;;;;;;2.44;100.00;99556.88;5029887;28;20754;-66
2023/11/13 02:13:32;;;;;;;1.47;1.37;;;;;;;2.48;100.00;99565.31;5029371;28;20389;-66
2023/11/13 02:15:59;;;;;;;1.67;1.57;;;;;;;2.49;100.00;99572.22;5030460;28;20398;-67
2023/11/13 02:18:25;;;;;;;1.97;1.80;;;;;;;2.54;100.00;99566.53;5025468;28;20280;-66
2023/11/13 02:20:51;;;;;;;2.43;1.93;;;;;;;2.38;100.00;99549.56;5030456;28;20296;-67
2023/11/13 02:23:17;;;;;;;1.70;1.57;;;;;;;2.43;100.00;99551.75;5027298;28;20639;-66
2023/11/13 02:25:51;;;;;;;2.77;1.50;;;;;;;2.42;100.00;99552.72;5031682;28;20065;-68
2023/11/13 02:28:17;;;;;;;1.87;1.70;;;;;;;2.54;100.00;99564.72;5030275;28;20414;-68
2023/11/13 02:30:43;;;;;;;4.67;2.60;;;;;;;2.45;100.00;99553.28;5030890;28;20378;-67
2023/11/13 02:33:08;;;;;;;2.40;2.20;;;;;;;2.46;100.00;99562.81;5023295;28;20029;-67
2023/11/13 02:35:34;;;;;;;4.70;2.93;;;;;;;2.34;100.00;99532.41;5028985;28;20330;-66
2023/11/13 02:38:00;;;;;;;2.30;2.10;;;;;;;2.38;100.00;99543.47;5027087;28;20420;-65
2023/11/13 02:40:26;;;;;;;2.67;2.00;;;;;;;2.38;100.00;99540.84;5030652;28;20041;-65
2023/11/13 02:42:51;;;;;;;3.33;2.67;;;;;;;2.52;100.00;99556.16;5025271;28;20046;-66
2023/11/13 02:45:17;;;;;;;2.13;1.40;;;;;;;2.41;100.00;99536.13;5031903;28;20314;-68
2023/11/13 02:47:43;;;;;;;2.97;2.43;;;;;;;2.42;100.00;99531.72;5028743;28;20052;-67
2023/11/13 02:50:12;;;;;;;1.93;1.60;;;;;;;2.47;100.00;99545.25;5028924;28;20045;-67
2023/11/13 02:52:38;;;;;;;;;;;;;;;2.58;100.00;99552.13;5030155;28;20052;-65
2023/11/13 02:55:05;;;;;;;2.33;2.07;;;;;;;2.42;100.00;99529.06;5029923;28;19920;-67
2023/11/13 02:57:32;;;;;;;1.73;1.63;;;;;;;2.45;100.00;99534.88;5031873;28;20072;-69
2023/11/13 02:59:58;;;;;;;2.57;1.60;;;;;;;2.46;100.00;99548.84;5025620;28;20342;-67
2023/11/13 03:02:23;;;;;;;2.60;1.80;;;;;;;2.47;100.00;99540.81;5031037;28;20347;-66
2023/11/13 03:04:49;;;;;;;1.53;1.43;;;;;;;2.47;100.00;99540.81;5029959;28;20128;-67
2023/11/13 03:07:15;;;;;;;1.40;1.10;;;;;;;2.39;100.00;99521.47;5026767;28;20037;-67
2023/11/13 03:09:40;;;;;;;1.53;1.43;;;;;;;2.40;100.00;99515.25;5026244;28;20045;-66
2023/11/13 03:12:07;;;;;;;1.50;1.30;;;;;;;2.41;100.00;99516.91;5012788;28;20046;-67
2023/11/13 03:14:32;;;;;;;1.20;1.10;;;;;;;1.65;100.00;99403.91;5029124;28;20453;-66
2023/11/13 03:16:58;;;;;;;1.13;1.03;;;;;;;2.35;100.00;99520.94;5031027;28;20347;-66
2023/11/13 03:19:23;;;;;;;1.20;1.10;;;;;;;2.27;100.00;99496.31;5030757;28;20080;-66
2023/11/13 03:21:49;;;;;;;1.40;1.30;;;;;;;2.34;100.00;99514.03;5029481;28;20037;-66
2023/11/13 03:24:15;;;;;;;3.33;1.93;;;;;;;2.39;100.00;99526.72;5032198;28;20500;-67
2023/11/13 03:26:42;;;;;;;1.30;1.20;;;;;;;2.13;100.00;99490.53;5029524;28;20066;-67
2023/11/13 03:29:08;;;;;;;1.43;1.33;;;;;;;2.24;100.00;99513.19;5026421;28;20481;-66
2023/11/13 03:31:34;;;;;;;1.57;1.47;;;;;;;2.38;100.00;99525.06;5031772;28;20318;-64
2023/11/13 03:33:59;;;;;;;1.53;1.30;;;;;;;2.40;100.00;99528.38;5029427;28;20038;-66
2023/11/13 03:36:25;;;;;;;3.17;1.60;;;;;;;2.25;100.00;99504.34;5029853;28;20044;-67
2023/11/13 03:38:51;;;;;;;2.20;1.50;;;;;;;2.15;100.00;99493.84;5030669;28;20038;-68
2023/11/13 03:41:16;;;;;;;1.47;1.37;;;;;;;2.17;100.00;99510.28;5027516;28;20049;-66
2023/11/13 03:43:42;;;;;;;1.33;1.03;;;;;;;1.93;100.00;99465.25;5026875;28;20041;-67
2023/11/13 03:46:08;;;;;;;1.40;1.10;;;;;;;2.17;100.00;99504.22;5029909;28;20492;-67
2023/11/13 03:48:34;;;;;;;2.03;1.40;;;;;;;2.27;100.00;99531.28;5032382;28;20511;-65
2023/11/13 03:51:00;;;;;;;1.40;1.10;;;;;;;2.13;100.00;99506.28;5028321;28;20363;-66
2023/11/13 03:53:25;;;;;;;1.33;1.10;;;;;;;2.20;100.00;99516.25;5027897;28;20037;-65
2023/11/13 03:55:51;;;;;;;1.57;1.47;;;;;;;1.99;100.00;99477.81;5027450;28;20417;-66
2023/11/13 03:58:16;;;;;;;0.90;0.90;;;;;;;2.25;100.00;99514.84;5030323;28;20041;-66
2023/11/13 04:00:42;;;;;;;1.20;1.10;;;;;;;2.29;100.00;99512.75;5027904;28;20126;-65
2023/11/13 04:03:08;;;;;;;1.33;1.20;;;;;;;1.48;100.00;99376.59;5027987;28;20041;-67
2023/11/13 04:05:34;;;;;;;1.73;1.60;;;;;;;2.31;100.00;99510.81;5029444;28;21169;-67
2023/11/13 04:07:59;;;;;;;2.17;1.80;;;;;;;2.15;100.00;99493.84;5024760;28;20615;-68
2023/11/13 04:10:27;;;;;;;3.50;2.53;;;;;;;2.14;100.00;99497.44;5029304;28;20124;-66
2023/11/13 04:12:53;;;;;;;2.08;1.77;;;;;;;2.23;100.00;99508.06;5027813;28;20037;-66
2023/11/13 04:15:19;;;;;;;2.00;1.67;;;;;;;2.22;100.00;99509.88;5027027;28;20126;-67
2023/11/13 04:17:44;;;;;;;1.30;1.20;;;;;;;2.26;100.00;99507.78;5026421;28;20136;-66
2023/11/13 04:20:12;;;;;;;1.27;1.17;;;;;;;2.25;100.00;99506.13;5029251;28;20136;-68
2023/11/13 04:22:40;;;;;;;1.20;1.10;;;;;;;2.13;100.00;99495.78;5027306;28;20040;-69
2023/11/13 04:25:08;;;;;;;1.20;1.10;;;;;;;2.12;100.00;99494.13;5027951;28;20387;-66
2023/11/13 04:27:37;;;;;;;1.73;1.50;;;;;;;2.17;100.00;99502.41;5027950;28;20288;-65
2023/11/13 04:30:04;;;;;;;1.50;1.40;;;;;;;2.20;100.00;99500.47;5028126;28;20076;-67
2023/11/13 04:32:32;;;;;;;2.03;1.40;;;;;;;2.23;100.00;99502.81;5028013;28;20053;-66
2023/11/13 04:34:58;;;;;;;1.93;1.40;;;;;;;2.18;100.00;99492.75;5022844;28;20314;-66
2023/11/13 04:37:24;;;;;;;1.83;1.50;;;;;;;2.13;100.00;99477.41;5025722;28;20076;-67
2023/11/13 04:39:49;;;;;;;4.20;1.80;;;;;;;2.07;100.00;99464.84;5029906;28;20092;-67
2023/11/13 04:42:15;;;;;;;1.77;1.60;;;;;;;2.10;100.00;99461.94;5023966;28;20132;-66
2023/11/13 04:44:41;;;;;;;10.80;2.27;;;;;;;2.32;100.00;99486.25;5028900;28;20072;-67
2023/11/13 04:47:08;;;;;;;3.53;1.90;;;;;;;2.37;100.00;99489.25;5026356;28;20037;-68
2023/11/13 04:49:35;;;;;;;4.10;2.00;;;;;;;2.27;100.00;99473.50;5029662;28;20045;-68
2023/11/13 04:52:02;;;;;;;3.23;2.40;;;;;;;2.25;100.00;99482.50;5027627;28;20322;-69
2023/11/13 04:54:28;;;;;;;2.17;1.93;;;;;;;2.18;100.00;99467.28;5026638;28;20300;-68
2023/11/13 04:56:55;;;;;;;1.60;1.40;;;;;;;2.25;100.00;99482.50;5027961;28;20286;-66
2023/11/13 04:59:21;;;;;;;1.40;1.30;;;;;;;2.18;100.00;99476.97;5028237;28;20371;-67
2023/11/13 05:01:47;;;;;;;3.47;1.77;;;;;;;2.16;100.00;99466.63;5028421;28;20881;-68
2023/11/13 05:04:13;;;;;;;1.57;1.40;;;;;;;2.17;100.00;99472.69;5026611;28;20133;-68
2023/11/13 05:06:38;;;;;;;2.10;1.90;;;;;;;1.90;100.00;99447.16;5030207;28;20366;-66
2023/11/13 05:09:04;;;;;;;1.23;1.13;;;;;;;2.19;100.00;99476.00;5030150;28;20049;-66
2023/11/13 05:11:31;;;;;;;1.30;1.20;;;;;;;2.15;100.00;99467.59;5028808;28;20103;-66
2023/11/13 05:13:56;;;;;;;1.20;1.10;;;;;;;2.02;100.00;99445.19;5030449;28;20037;-67
2023/11/13 05:16:24;;;;;;;2.03;1.50;;;;;;;2.21;100.00;99475.88;5030152;28;20287;-69
2023/11/13 05:18:54;;;;;;;1.83;1.50;;;;;;;2.15;100.00;99462.34;5030544;28;20144;-67
2023/11/13 05:21:20;;;;;;;2.03;1.50;;;;;;;2.23;100.00;99477.38;5031301;28;20798;-66
2023/11/13 05:23:47;;;;;;;2.30;1.53;;;;;;;2.20;100.00;99472.41;5031913;28;20274;-71
2023/11/13 05:26:13;;;;;;;1.87;1.60;;;;;;;2.14;100.00;99452.78;5031825;28;20924;-66
2023/11/13 05:28:39;;;;;;;1.73;1.50;;;;;;;2.05;100.00;99434.44;5031702;28;20362;-66
2023/11/13 05:31:05;;;;;;;1.87;1.50;;;;;;;2.25;100.00;99471.97;5031819;28;20326;-66
2023/11/13 05:33:31;;;;;;;1.97;1.87;;;;;;;2.26;100.00;99463.13;5029503;28;20037;-65
2023/11/13 05:35:57;;;;;;;1.50;1.37;;;;;;;2.24;100.00;99463.28;5029205;28;20049;-65
2023/11/13 05:38:23;;;;;;;1.27;1.17;;;;;;;2.04;100.00;99433.59;5030225;28;20041;-68
2023/11/13 05:40:48;;;;;;;1.80;1.60;;;;;;;1.89;100.00;99407.91;5032607;28;20393;-65
2023/11/13 05:43:14;;;;;;;4.63;1.77;;;;;;;2.21;100.00;99460.09;5027733;28;20276;-67
2023/11/13 05:45:40;;;;;;;2.50;1.70;;;;;;;2.23;100.00;99460.78;5030090;28;20037;-66
2023/11/13 05:48:07;;;;;;;4.40;3.27;;;;;;;2.03;100.00;99431.94;5031193;28;20389;-65
2023/11/13 05:50:33;;;;;;;2.33;2.07;;;;;;;2.22;100.00;99454.72;5032600;28;20636;-66
2023/11/13 05:52:59;;;;;;;2.00;1.80;;;;;;;2.26;100.00;99463.13;5032320;28;20344;-64
2023/11/13 05:55:25;;;;;;;1.93;1.60;;;;;;;2.10;100.00;99437.47;5031984;28;20659;-65
2023/11/13 05:57:51;;;;;;;1.67;1.57;;;;;;;1.86;100.00;99416.91;5030297;28;20072;-64
2023/11/13 06:00:18;;;;;;;3.07;2.03;;;;;;;2.04;100.00;99435.41;5029941;28;20041;-65
2023/11/13 06:02:45;;;;;;;3.63;2.30;;;;;;;2.12;100.00;99457.34;5032420;28;20292;-65
2023/11/13 06:05:11;;;;;;;3.13;2.30;;;;;;;2.14;100.00;99457.22;5031963;28;20284;-65
2023/11/13 06:07:37;;;;;;;2.30;1.93;;;;;;;2.05;100.00;99439.69;5030383;28;20338;-65
2023/11/13 06:10:07;;;;;;;2.40;2.20;;;;;;;2.05;100.00;99442.31;5029576;28;20045;-66
2023/11/13 06:12:33;;;;;;;3.93;2.70;;;;;;;2.20;100.00;99455.81;5029070;28;20280;-64
2023/11/13 06:14:59;;;;;;;2.93;2.17;;;;;;;2.16;100.00;99452.66;5029507;28;20300;-66
2023/11/13 06:17:25;;;;;;;1.73;1.63;;;;;;;2.14;100.00;99452.78;5028104;28;20284;-65
2023/11/13 06:19:52;;;;;;;1.70;1.50;;;;;;;1.94;100.00;99432.78;5029077;28;20044;-66
2023/11/13 06:22:17;;;;;;;1.70;1.50;;;;;;;2.11;100.00;99455.72;5029532;28;20643;-65
2023/11/13 06:24:44;;;;;;;1.93;1.73;;;;;;;2.15;100.00;99456.25;5027575;28;20296;-65
2023/11/13 06:27:10;;;;;;;4.80;2.87;;;;;;;2.01;100.00;99425.16;5028324;28;20068;-65
2023/11/13 06:29:35;;;;;;;2.70;2.00;;;;;;;2.16;100.00;99448.22;5029077;28;20283;-65
2023/11/13 06:32:01;;;;;;;3.80;1.83;;;;;;;2.07;100.00;99433.31;5024158;28;20045;-64
2023/11/13 06:34:28;;;;;;;4.50;2.00;;;;;;;2.16;100.00;99456.09;5029992;28;20064;-65
2023/11/13 06:36:54;;;;;;;1.67;1.57;;;;;;;2.10;100.00;99438.28;5029505;28;20375;-65
2023/11/13 06:39:20;;;;;;;2.13;1.50;;;;;;;2.09;100.00;99441.06;5032348;28;20367;-65
2023/11/13 06:41:45;;;;;;;2.17;1.50;;;;;;;2.09;100.00;99425.31;5027608;28;20034;-65
2023/11/13 06:44:11;;;;;;;1.50;1.40;;;;;;;2.11;100.00;99429.44;5033461;28;20079;-65
2023/11/13 06:46:38;;;;;;;1.47;1.37;;;;;;;2.08;100.00;99427.09;5030211;28;20488;-65
2023/11/13 06:49:04;;;;;;;3.80;1.60;;;;;;;2.16;100.00;99447.41;5032483;28;20045;-65
2023/11/13 06:51:30;;;;;;;4.33;1.67;;;;;;;2.09;100.00;99426.13;5023899;28;20280;-65
2023/11/13 06:53:56;;;;;;;3.50;1.70;;;;;;;1.99;100.00;99414.78;5027840;28;20075;-64
2023/11/13 06:56:22;;;;;;;1.90;1.77;;;;;;;2.12;100.00;99433.72;5007676;28;20273;-65
2023/11/13 06:58:51;;;;;;;1.73;1.60;;;;;;;2.08;100.00;99437.59;5030453;28;20045;-67
2023/11/13 07:01:18;;;;;;;3.47;2.13;;;;;;;2.10;100.00;99419.06;5030840;28;20329;-67
2023/11/13 07:03:45;;;;;;;2.07;1.87;;;;;;;2.35;100.00;99449.16;5028637;28;20604;-66
2023/11/13 07:06:10;;;;;;;2.10;1.50;;;;;;;2.14;100.00;99423.91;5025206;28;20291;-66
2023/11/13 07:08:37;;;;;;;2.00;1.90;;;;;;;2.12;100.00;99420.59;5029497;28;20284;-67
2023/11/13 07:11:04;;;;;;;2.40;1.43;;;;;;;2.22;100.00;99430.25;5027625;28;20111;-67
2023/11/13 07:13:30;;;;;;;2.73;1.70;;;;;;;2.14;100.00;99417.81;5031445;28;20292;-65
2023/11/13 07:15:56;;;;;;;2.30;1.70;;;;;;;2.23;100.00;99437.16;5032061;28;20292;-65
2023/11/13 07:18:22;;;;;;;2.60;1.93;;;;;;;2.28;100.00;99440.16;5029093;28;20272;-70
2023/11/13 07:20:50;;;;;;;2.13;1.93;;;;;;;2.30;100.00;99439.06;5030085;28;20093;-66
2023/11/13 07:23:17;;;;;;;2.30;1.97;;;;;;;2.29;100.00;99420.81;5025260;28;20283;-71
2023/11/13 07:25:48;;;;;;;2.00;1.80;;;;;;;2.29;100.00;99431.31;5024268;28;20340;-68
2023/11/13 07:28:17;;;;;;;2.60;1.90;;;;;;;2.37;100.00;99444.59;5029140;28;20324;-67
2023/11/13 07:30:42;;;;;;;1.83;1.73;;;;;;;2.35;100.00;99441.28;5029028;28;20790;-64
2023/11/13 07:33:08;;;;;;;2.43;2.00;;;;;;;2.32;100.00;99434.53;5028112;28;20052;-66
2023/11/13 07:35:36;;;;;;;2.73;1.70;;;;;;;2.37;100.00;99434.09;5030863;28;20076;-66
2023/11/13 07:38:02;;;;;;;1.67;1.58;;;;;;;2.14;100.00;99395.00;5031378;28;20084;-65
2023/11/13 07:40:27;;;;;;;2.27;1.60;;;;;;;2.38;100.00;99426.06;5030207;28;20730;-66
2023/11/13 07:42:54;;;;;;;2.40;2.20;;;;;;;2.38;100.00;99430.50;5030043;28;20455;-65
2023/11/13 07:45:20;;;;;;;5.13;1.93;;;;;;;2.30;100.00;99418.03;5032178;28;20049;-66
2023/11/13 07:47:45;;;;;;;2.67;1.83;;;;;;;2.33;100.00;99422.22;5025196;28;20284;-70
2023/11/13 07:50:11;;;;;;;3.50;2.10;;;;;;;2.27;100.00;99407.00;5025847;28;20485;-66
2023/11/13 07:52:42;;;;;;;2.30;2.10;;;;;;;2.51;100.00;99420.47;5023726;28;20046;-65
2023/11/13 07:55:12;;;;;;;3.00;2.27;;;;;;;2.40;100.00;99410.97;5035837;28;20296;-66
2023/11/13 07:57:38;;;;;;;2.40;1.77;;;;;;;2.35;100.00;99412.38;5028754;28;20497;-66
2023/11/13 08:00:09;;;;;;;2.07;1.80;;;;;;;2.40;100.00;99428.53;5025285;28;20280;-66
2023/11/13 08:02:40;;;;;;;2.77;1.90;;;;;;;2.37;100.00;99418.31;5026958;28;20787;-66
2023/11/13 08:05:13;;;;;;;1.70;1.60;;;;;;;2.40;100.00;99431.16;5025558;28;20300;-67
2023/11/13 08:07:40;;;;;;;1.97;1.67;;;;;;;2.36;100.00;99424.56;5028213;28;20763;-69
2023/11/13 08:10:12;;;;;;;2.73;1.70;;;;;;;2.28;100.00;99424.41;5028471;28;20813;-70
2023/11/13 08:12:45;;;;;;;2.43;2.23;;;;;;;2.30;100.00;99414.59;5026512;28;20403;-70
2023/11/13 08:15:12;;;;;;;2.33;1.73;;;;;;;2.39;100.00;99442.66;5026244;28;20394;-65
2023/11/13 08:17:45;;;;;;;2.13;1.80;;;;;;;2.36;100.00;99440.31;5023066;28;20326;-67
2023/11/13 08:20:14;;;;;;;2.63;1.30;;;;;;;2.24;100.00;99425.66;5029520;28;20648;-66
2023/11/13 08:22:41;;;;;;;2.30;1.87;;;;;;;2.22;100.00;99435.50;5029707;28;20299;-66
2023/11/13 08:25:12;;;;;;;3.70;2.37;;;;;;;2.17;100.00;99439.38;5028211;28;20315;-66
2023/11/13 08:27:44;;;;;;;3.93;2.53;;;;;;;2.14;100.00;99429.16;5031787;28;20913;-67
2023/11/13 08:30:14;;;;;;;4.87;2.20;;;;;;;2.19;100.00;99436.59;5028631;28;20307;-65
2023/11/13 08:32:41;;;;;;;4.00;2.23;;;;;;;2.14;100.00;99415.19;5029420;28;20763;-65
2023/11/13 08:35:15;;;;;;;3.77;2.13;;;;;;;2.31;100.00;99438.09;5030081;28;20300;-66
2023/11/13 08:37:49;;;;;;;2.17;1.83;;;;;;;2.32;100.00;99441.56;5029859;28;20307;-68
2023/11/13 08:40:19;;;;;;;2.60;2.23;;;;;;;2.20;100.00;99416.41;5025890;28;20651;-63
2023/11/13 08:42:46;;;;;;;1.53;1.33;;;;;;;2.26;100.00;99432.44;5028974;28;20307;-66
2023/11/13 08:45:15;;;;;;;1.43;1.20;;;;;;;1.88;100.00;99383.47;5029974;28;20280;-65
2023/11/13 08:47:43;;;;;;;2.27;1.57;;;;;;;2.04;100.00;99417.84;5024601;28;20791;-64
2023/11/13 08:50:11;;;;;;;2.70;1.10;;;;;;;2.02;100.00;99408.44;5028611;28;20276;-69
2023/11/13 08:52:42;;;;;;;2.35;1.58;;;;;;;1.99;100.00;99412.16;5032074;28;20284;-65
2023/11/13 08:55:12;;;;;;;1.50;1.40;;;;;;;2.10;100.00;99422.53;5013766;28;20049;-65
2023/11/13 08:57:42;;;;;;;2.10;1.87;;;;;;;2.18;100.00;99427.91;5033690;28;20284;-67
2023/11/13 09:00:21;;;;;;;1.80;1.53;;;;;;;2.23;100.00;99421.38;5034446;28;20284;-64
2023/11/13 09:02:56;;;;;;;1.80;1.40;;;;;;;2.16;100.00;99429.84;5034012;28;20341;-67
2023/11/13 09:05:25;;;;;;;4.10;1.80;;;;;;;2.15;100.00;99430.81;5031873;28;20296;-66
2023/11/13 09:07:53;;;;;;;3.13;1.50;;;;;;;2.09;100.00;99431.38;5031980;28;20284;-65
2023/11/13 09:10:21;;;;;;;1.73;1.63;;;;;;;2.02;100.00;99422.38;5027622;28;20735;-64
2023/11/13 09:12:47;;;;;;;1.58;1.45;;;;;;;1.96;100.00;99424.75;5026108;28;20327;-64
2023/11/13 09:15:17;;;;;;;2.90;1.40;;;;;;;1.86;100.00;99401.16;5029323;28;20071;-64
2023/11/13 09:17:45;;;;;;;1.60;1.40;;;;;;;1.85;100.00;99407.38;5032070;28;20817;-63
2023/11/13 09:20:18;;;;;;;1.40;1.30;;;;;;;1.73;100.00;99403.22;5031361;28;20273;-64
2023/11/13 09:22:44;;;;;;;1.77;1.30;;;;;;;1.62;100.00;99406.00;5027652;28;20500;-65
2023/11/13 09:25:17;;;;;;;1.63;1.20;;;;;;;1.58;100.00;99415.13;5030594;28;20289;-64
2023/11/13 09:27:48;;;;;;;1.80;1.30;;;;;;;1.54;100.00;99417.19;5031048;28;20291;-64
2023/11/13 09:30:21;;;;;;;3.30;1.50;;;;;;;1.42;100.00;99400.72;5032225;28;20855;-64
2023/11/13 09:32:48;;;;;;;4.00;1.50;;;;;;;1.55;100.00;99422.28;5032244;28;20276;-65
2023/11/13 09:35:29;;;;;;;1.70;1.60;;;;;;;1.53;100.00;99413.75;5029284;28;20664;-65
2023/11/13 09:37:56;;;;;;;2.77;1.70;;;;;;;1.62;100.00;99413.88;5034114;28;20280;-65
2023/11/13 09:40:35;;;;;;;2.53;1.83;;;;;;;1.61;100.00;99406.97;5033645;28;20797;-64
2023/11/13 09:43:15;;;;;;;2.90;2.00;;;;;;;1.61;100.00;99414.84;5030118;28;20782;-65
2023/11/13 09:45:45;;;;;;;4.10;1.70;;;;;;;1.49;100.00;99407.13;5029976;28;20370;-66
2023/11/13 09:48:19;;;;;;;3.63;1.83;;;;;;;1.15;100.00;99362.06;5029956;28;20290;-68
2023/11/13 09:50:46;;;;;;;2.13;1.57;;;;;;;1.32;100.00;99399.91;5032683;28;20280;-69
2023/11/13 09:53:15;;;;;;;2.37;1.60;;;;;;;1.46;100.00;99417.06;5032823;28;20737;-67
2023/11/13 09:55:45;;;;;;;2.73;1.50;;;;;;;1.36;100.00;99397.84;5011790;28;20300;-67
2023/11/13 09:58:12;;;;;;;1.33;1.23;;;;;;;1.42;100.00;99407.78;5027007;28;20628;-68
2023/11/13 10:00:40;;;;;;;1.77;1.47;;;;;;;1.43;100.00;99406.81;5030526;28;20655;-68
2023/11/13 10:03:12;;;;;;;;;;;;;;;1.47;100.00;99413.47;5031446;28;20842;-67
2023/11/13 10:05:39;;;;;;;1.47;1.30;;;;;;;1.27;100.00;99389.00;5030859;28;19948;-66
2023/11/13 10:08:05;;;;;;;1.40;1.30;;;;;;;1.31;100.00;99393.00;5035517;28;20272;-67
2023/11/13 10:10:30;;;;;;;1.43;1.30;;;;;;;1.38;100.00;99404.59;5034790;28;20272;-66
2023/11/13 10:13:01;;;;;;;1.50;1.40;;;;;;;1.37;100.00;99402.94;5029982;28;20512;-63
2023/11/13 10:15:30;;;;;;;1.40;1.10;;;;;;;1.24;100.00;99405.00;5031553;28;20041;-68
2023/11/13 10:17:58;;;;;;;3.13;2.10;;;;;;;1.23;100.00;99405.97;5007618;28;21723;-65
2023/11/13 10:20:25;;;;;;;3.40;2.33;;;;;;;1.24;100.00;99413.72;5029182;28;20644;-66
2023/11/13 10:22:58;;;;;;;1.77;1.30;;;;;;;1.21;100.00;99397.44;5026902;28;20276;-67
2023/11/13 10:25:30;;;;;;;2.43;1.53;;;;;;;1.19;100.00;99401.97;5028688;28;20744;-65
2023/11/13 10:28:01;;;;;;;2.00;1.80;;;;;;;1.17;100.00;99396.88;5025289;28;20298;-68
2023/11/13 10:30:30;;;;;;;1.63;1.53;;;;;;;1.23;100.00;99405.97;5028756;28;20284;-67
2023/11/13 10:32:58;;;;;;;1.93;1.57;;;;;;;1.29;100.00;99415.91;5028930;28;20280;-67
2023/11/13 10:35:37;;;;;;;1.67;1.30;;;;;;;1.26;100.00;99416.19;5030769;28;20395;-66
2023/11/13 10:38:03;;;;;;;2.70;1.87;;;;;;;1.25;100.00;99414.53;5034053;28;20132;-69
2023/11/13 10:40:33;;;;;;;1.80;1.50;;;;;;;1.23;100.00;99408.59;5028445;28;20276;-68
2023/11/13 10:43:04;;;;;;;2.57;1.40;;;;;;;1.21;100.00;99413.16;5029825;28;20275;-67
2023/11/13 10:45:32;;;;;;;1.43;1.33;;;;;;;1.14;100.00;99412.03;5029899;28;20778;-69
2023/11/13 10:47:58;;;;;;;2.38;1.90;;;;;;;0.98;100.00;99396.00;5031137;28;20331;-65
2023/11/13 10:50:25;;;;;;;2.03;1.83;;;;;;;1.00;100.00;99415.03;5031304;28;20457;-70
2023/11/13 10:52:53;;;;;;;6.23;2.70;;;;;;;0.90;100.00;99402.75;5007917;28;20137;-68
2023/11/13 10:55:27;;;;;;;2.40;2.03;;;;;;;0.92;100.00;99411.31;5025881;28;20353;-71
2023/11/13 10:57:53;;;;;;;2.50;2.17;;;;;;;0.94;100.00;99426.91;5030416;28;20452;-69
2023/11/13 11:00:19;;;;;;;3.10;2.53;;;;;;;0.93;100.00;99415.59;5027600;28;20307;-66
2023/11/13 11:02:47;;;;;;;3.07;1.87;;;;;;;0.88;100.00;99404.69;5030602;28;20033;-67
2023/11/13 11:05:19;;;;;;;5.40;2.15;;;;;;;0.92;100.00;99405.25;5032394;28;20268;-65
2023/11/13 11:07:49;;;;;;;3.83;1.70;;;;;;;0.82;100.00;99394.72;5029499;28;20057;-69
2023/11/13 11:10:16;;;;;;;3.63;2.37;;;;;;;0.91;100.00;99412.28;5026307;28;20316;-65
2023/11/13 11:12:50;;;;;;;1.98;1.55;;;;;;;0.76;100.00;99387.38;5026637;28;20284;-66
2023/11/13 11:15:22;;;;;;;3.57;1.70;;;;;;;0.88;100.00;99420.41;5027626;28;20050;-67
2023/11/13 11:18:05;;;;;;;4.40;2.57;;;;;;;0.87;100.00;99421.38;5026504;28;20260;-66
2023/11/13 11:20:59;;;;;;;3.73;2.13;;;;;;;0.84;100.00;99416.38;5022477;28;20288;-67
2023/11/13 11:23:30;;;;;;;2.67;1.93;;;;;;;0.69;100.00;99391.50;5029071;28;20633;-67
2023/11/13 11:25:59;;;;;;;2.67;2.00;;;;;;;0.86;100.00;99424.94;5027396;28;20288;-68
2023/11/13 11:28:38;;;;;;;2.40;2.20;;;;;;;0.90;100.00;99415.03;5029608;28;20803;-72
2023/11/13 11:31:43;;;;;;;5.90;2.03;;;;;;;0.92;100.00;99416.56;5031292;28;20816;-69
2023/11/13 11:34:16;;;;;;;3.13;2.13;;;;;;;0.83;100.00;99408.63;4996614;28;20030;-67
2023/11/13 11:36:44;;;;;;;2.73;2.03;;;;;;;0.84;100.00;99419.00;4993513;28;20281;-66